sensor_id;sensor_type;location;lat;lon;timestamp;P1;durP1;ratioP1;P2;durP2;ratioP2
18917;SDS011;9591;52.742;13.650;2022-09-04T00:01:50;1.23;;;1.13;;
18917;SDS011;9591;52.742;13.650;2022-09-04T00:04:42;1.60;;;0.97;;
18917;SDS011;9591;52.742;13.650;2022-09-04T00:07:34;2.63;;;1.20;;
18917;SDS011;9591;52.742;13.650;2022-09-04T00:10:32;4.80;;;2.03;;
18917;SDS011;9591;52.742;13.650;2022-09-04T00:13:27;2.90;;;1.20;;
18917;SDS011;9591;52.742;13.650;2022-09-04T00:16:17;1.33;;;0.93;;
18917;SDS011;9591;52.742;13.650;2022-09-04T00:19:07;2.20;;;1.00;;
18917;SDS011;9591;52.742;13.650;2022-09-04T00:21:59;1.43;;;1.10;;
18917;SDS011;9591;52.742;13.650;2022-09-04T00:24:49;2.83;;;1.30;;
18917;SDS011;9591;52.742;13.650;2022-09-04T00:27:43;2.30;;;1.03;;
18917;SDS011;9591;52.742;13.650;2022-09-04T00:30:32;3.17;;;1.00;;
18917;SDS011;9591;52.742;13.650;2022-09-04T00:33:28;1.67;;;1.10;;
18917;SDS011;9591;52.742;13.650;2022-09-04T00:36:25;4.40;;;1.10;;
18917;SDS011;9591;52.742;13.650;2022-09-04T00:39:17;1.73;;;1.13;;
18917;SDS011;9591;52.742;13.650;2022-09-04T00:42:11;1.33;;;1.00;;
18917;SDS011;9591;52.742;13.650;2022-09-04T00:48:22;5.23;;;1.03;;
18917;SDS011;9591;52.742;13.650;2022-09-04T00:51:27;1.27;;;1.00;;
18917;SDS011;9591;52.742;13.650;2022-09-04T00:54:26;1.37;;;0.90;;
18917;SDS011;9591;52.742;13.650;2022-09-04T00:57:39;2.03;;;1.30;;
18917;SDS011;9591;52.742;13.650;2022-09-04T01:00:37;1.50;;;1.10;;
18917;SDS011;9591;52.742;13.650;2022-09-04T01:06:58;2.30;;;0.70;;
18917;SDS011;9591;52.742;13.650;2022-09-04T01:09:59;2.97;;;1.00;;
18917;SDS011;9591;52.742;13.650;2022-09-04T01:12:54;2.50;;;1.03;;
18917;SDS011;9591;52.742;13.650;2022-09-04T01:15:49;2.23;;;1.70;;
18917;SDS011;9591;52.742;13.650;2022-09-04T01:18:44;1.90;;;1.03;;
18917;SDS011;9591;52.742;13.650;2022-09-04T01:21:56;2.57;;;1.10;;
18917;SDS011;9591;52.742;13.650;2022-09-04T01:24:58;1.40;;;1.03;;
18917;SDS011;9591;52.742;13.650;2022-09-04T01:27:53;1.07;;;1.00;;
18917;SDS011;9591;52.742;13.650;2022-09-04T01:30:46;1.17;;;1.00;;
18917;SDS011;9591;52.742;13.650;2022-09-04T01:33:37;1.20;;;1.10;;
18917;SDS011;9591;52.742;13.650;2022-09-04T01:36:33;4.13;;;1.03;;
18917;SDS011;9591;52.742;13.650;2022-09-04T01:39:24;5.33;;;1.20;;
18917;SDS011;9591;52.742;13.650;2022-09-04T01:42:16;2.57;;;1.30;;
18917;SDS011;9591;52.742;13.650;2022-09-04T01:45:11;3.60;;;1.10;;
18917;SDS011;9591;52.742;13.650;2022-09-04T01:47:59;2.07;;;1.20;;
18917;SDS011;9591;52.742;13.650;2022-09-04T01:50:52;2.50;;;1.30;;
18917;SDS011;9591;52.742;13.650;2022-09-04T01:53:49;1.20;;;1.10;;
18917;SDS011;9591;52.742;13.650;2022-09-04T01:56:50;1.40;;;1.30;;
18917;SDS011;9591;52.742;13.650;2022-09-04T01:59:50;2.37;;;1.43;;
18917;SDS011;9591;52.742;13.650;2022-09-04T02:02:53;2.67;;;1.37;;
18917;SDS011;9591;52.742;13.650;2022-09-04T02:05:46;5.07;;;1.30;;
18917;SDS011;9591;52.742;13.650;2022-09-04T02:08:51;2.57;;;1.23;;
18917;SDS011;9591;52.742;13.650;2022-09-04T02:11:47;2.63;;;1.10;;
18917;SDS011;9591;52.742;13.650;2022-09-04T02:14:46;1.00;;;0.90;;
18917;SDS011;9591;52.742;13.650;2022-09-04T02:17:44;3.73;;;1.30;;
18917;SDS011;9591;52.742;13.650;2022-09-04T02:20:43;2.60;;;1.00;;
18917;SDS011;9591;52.742;13.650;2022-09-04T02:23:39;1.67;;;1.00;;
18917;SDS011;9591;52.742;13.650;2022-09-04T02:26:32;1.17;;;1.13;;
18917;SDS011;9591;52.742;13.650;2022-09-04T02:29:25;2.43;;;1.27;;
18917;SDS011;9591;52.742;13.650;2022-09-04T02:32:18;3.23;;;1.17;;
18917;SDS011;9591;52.742;13.650;2022-09-04T02:35:12;1.50;;;1.40;;
18917;SDS011;9591;52.742;13.650;2022-09-04T02:38:07;2.87;;;1.17;;
18917;SDS011;9591;52.742;13.650;2022-09-04T02:41:03;1.27;;;0.90;;
18917;SDS011;9591;52.742;13.650;2022-09-04T02:44:05;1.67;;;1.30;;
18917;SDS011;9591;52.742;13.650;2022-09-04T02:47:05;1.60;;;1.10;;
18917;SDS011;9591;52.742;13.650;2022-09-04T02:50:02;2.90;;;1.23;;
18917;SDS011;9591;52.742;13.650;2022-09-04T02:53:00;1.17;;;1.00;;
18917;SDS011;9591;52.742;13.650;2022-09-04T02:56:05;2.67;;;1.17;;
18917;SDS011;9591;52.742;13.650;2022-09-04T02:59:06;1.57;;;1.20;;
18917;SDS011;9591;52.742;13.650;2022-09-04T03:02:10;1.20;;;1.10;;
18917;SDS011;9591;52.742;13.650;2022-09-04T03:05:07;2.20;;;1.10;;
18917;SDS011;9591;52.742;13.650;2022-09-04T03:08:04;1.27;;;1.17;;
18917;SDS011;9591;52.742;13.650;2022-09-04T03:10:56;1.30;;;1.20;;
18917;SDS011;9591;52.742;13.650;2022-09-04T03:13:49;1.10;;;1.10;;
18917;SDS011;9591;52.742;13.650;2022-09-04T03:16:44;1.93;;;1.30;;
18917;SDS011;9591;52.742;13.650;2022-09-04T03:19:36;1.10;;;1.10;;
18917;SDS011;9591;52.742;13.650;2022-09-04T03:22:31;1.83;;;1.30;;
18917;SDS011;9591;52.742;13.650;2022-09-04T03:25:28;2.03;;;1.10;;
18917;SDS011;9591;52.742;13.650;2022-09-04T03:28:32;3.37;;;1.30;;
18917;SDS011;9591;52.742;13.650;2022-09-04T03:31:28;1.90;;;1.30;;
18917;SDS011;9591;52.742;13.650;2022-09-04T03:34:21;1.53;;;1.40;;
18917;SDS011;9591;52.742;13.650;2022-09-04T03:37:25;1.63;;;1.30;;
18917;SDS011;9591;52.742;13.650;2022-09-04T03:40:25;4.40;;;1.27;;
18917;SDS011;9591;52.742;13.650;2022-09-04T03:43:33;1.27;;;1.13;;
18917;SDS011;9591;52.742;13.650;2022-09-04T03:46:32;2.17;;;1.33;;
18917;SDS011;9591;52.742;13.650;2022-09-04T03:49:32;1.90;;;1.47;;
18917;SDS011;9591;52.742;13.650;2022-09-04T03:52:28;1.43;;;1.33;;
18917;SDS011;9591;52.742;13.650;2022-09-04T03:55:24;3.70;;;1.30;;
18917;SDS011;9591;52.742;13.650;2022-09-04T03:58:22;2.33;;;1.47;;
18917;SDS011;9591;52.742;13.650;2022-09-04T04:01:25;1.23;;;1.13;;
18917;SDS011;9591;52.742;13.650;2022-09-04T04:04:26;1.77;;;1.37;;
18917;SDS011;9591;52.742;13.650;2022-09-04T04:07:31;5.67;;;1.33;;
18917;SDS011;9591;52.742;13.650;2022-09-04T04:10:25;3.07;;;1.53;;
18917;SDS011;9591;52.742;13.650;2022-09-04T04:13:22;1.83;;;1.30;;
18917;SDS011;9591;52.742;13.650;2022-09-04T04:16:25;1.90;;;1.40;;
18917;SDS011;9591;52.742;13.650;2022-09-04T04:19:34;1.73;;;1.40;;
18917;SDS011;9591;52.742;13.650;2022-09-04T04:22:40;2.07;;;1.47;;
18917;SDS011;9591;52.742;13.650;2022-09-04T04:25:44;1.87;;;1.43;;
18917;SDS011;9591;52.742;13.650;2022-09-04T04:28:55;1.70;;;1.40;;
18917;SDS011;9591;52.742;13.650;2022-09-04T04:32:03;2.17;;;1.60;;
18917;SDS011;9591;52.742;13.650;2022-09-04T04:35:07;3.40;;;1.30;;
18917;SDS011;9591;52.742;13.650;2022-09-04T04:38:04;1.63;;;1.20;;
18917;SDS011;9591;52.742;13.650;2022-09-04T04:41:10;1.87;;;1.40;;
18917;SDS011;9591;52.742;13.650;2022-09-04T04:44:47;1.97;;;1.50;;
18917;SDS011;9591;52.742;13.650;2022-09-04T04:48:18;3.07;;;1.50;;
18917;SDS011;9591;52.742;13.650;2022-09-04T04:55:05;2.03;;;1.30;;
18917;SDS011;9591;52.742;13.650;2022-09-04T05:01:17;4.00;;;1.73;;
18917;SDS011;9591;52.742;13.650;2022-09-04T05:04:21;1.50;;;1.40;;
18917;SDS011;9591;52.742;13.650;2022-09-04T05:07:17;1.93;;;1.20;;
18917;SDS011;9591;52.742;13.650;2022-09-04T05:10:16;1.87;;;1.50;;
18917;SDS011;9591;52.742;13.650;2022-09-04T05:13:08;5.20;;;1.50;;
18917;SDS011;9591;52.742;13.650;2022-09-04T05:16:04;1.93;;;1.50;;
18917;SDS011;9591;52.742;13.650;2022-09-04T05:19:05;3.70;;;1.40;;
18917;SDS011;9591;52.742;13.650;2022-09-04T05:22:03;1.67;;;1.57;;
18917;SDS011;9591;52.742;13.650;2022-09-04T05:25:01;2.90;;;1.57;;
18917;SDS011;9591;52.742;13.650;2022-09-04T05:27:56;1.60;;;1.50;;
18917;SDS011;9591;52.742;13.650;2022-09-04T05:30:51;1.40;;;1.30;;
18917;SDS011;9591;52.742;13.650;2022-09-04T05:33:50;6.27;;;1.77;;
18917;SDS011;9591;52.742;13.650;2022-09-04T05:36:45;1.40;;;1.30;;
18917;SDS011;9591;52.742;13.650;2022-09-04T05:39:57;1.60;;;1.50;;
18917;SDS011;9591;52.742;13.650;2022-09-04T05:42:55;1.97;;;1.53;;
18917;SDS011;9591;52.742;13.650;2022-09-04T05:46:04;1.67;;;1.37;;
18917;SDS011;9591;52.742;13.650;2022-09-04T05:48:57;1.57;;;1.40;;
18917;SDS011;9591;52.742;13.650;2022-09-04T05:51:54;2.30;;;1.37;;
18917;SDS011;9591;52.742;13.650;2022-09-04T05:55:29;1.77;;;1.50;;
18917;SDS011;9591;52.742;13.650;2022-09-04T05:58:37;3.63;;;1.60;;
18917;SDS011;9591;52.742;13.650;2022-09-04T06:01:49;2.53;;;1.73;;
18917;SDS011;9591;52.742;13.650;2022-09-04T06:08:14;3.43;;;3.00;;
18917;SDS011;9591;52.742;13.650;2022-09-04T06:17:47;2.07;;;1.80;;
18917;SDS011;9591;52.742;13.650;2022-09-04T06:24:29;2.47;;;1.60;;
18917;SDS011;9591;52.742;13.650;2022-09-04T06:27:32;4.30;;;1.30;;
18917;SDS011;9591;52.742;13.650;2022-09-04T06:30:28;2.33;;;1.60;;
18917;SDS011;9591;52.742;13.650;2022-09-04T06:33:28;3.57;;;1.37;;
18917;SDS011;9591;52.742;13.650;2022-09-04T06:36:28;11.57;;;1.90;;
18917;SDS011;9591;52.742;13.650;2022-09-04T06:42:54;4.27;;;1.57;;
18917;SDS011;9591;52.742;13.650;2022-09-04T06:45:51;2.50;;;1.53;;
18917;SDS011;9591;52.742;13.650;2022-09-04T06:48:57;1.77;;;1.50;;
18917;SDS011;9591;52.742;13.650;2022-09-04T06:51:52;4.63;;;1.53;;
18917;SDS011;9591;52.742;13.650;2022-09-04T06:54:55;2.43;;;1.60;;
18917;SDS011;9591;52.742;13.650;2022-09-04T06:57:56;2.80;;;1.70;;
18917;SDS011;9591;52.742;13.650;2022-09-04T07:00:54;1.47;;;1.30;;
18917;SDS011;9591;52.742;13.650;2022-09-04T07:03:52;3.03;;;1.57;;
18917;SDS011;9591;52.742;13.650;2022-09-04T07:06:53;2.90;;;2.60;;
18917;SDS011;9591;52.742;13.650;2022-09-04T07:09:51;3.47;;;1.80;;
18917;SDS011;9591;52.742;13.650;2022-09-04T07:12:49;3.93;;;1.70;;
18917;SDS011;9591;52.742;13.650;2022-09-04T07:15:59;2.83;;;1.70;;
18917;SDS011;9591;52.742;13.650;2022-09-04T07:19:00;2.33;;;1.67;;
18917;SDS011;9591;52.742;13.650;2022-09-04T07:22:05;3.60;;;1.60;;
18917;SDS011;9591;52.742;13.650;2022-09-04T07:25:38;6.33;;;2.30;;
18917;SDS011;9591;52.742;13.650;2022-09-04T07:31:45;3.40;;;1.97;;
18917;SDS011;9591;52.742;13.650;2022-09-04T07:34:42;5.03;;;1.90;;
18917;SDS011;9591;52.742;13.650;2022-09-04T07:37:34;3.70;;;2.00;;
18917;SDS011;9591;52.742;13.650;2022-09-04T07:40:29;5.33;;;2.37;;
18917;SDS011;9591;52.742;13.650;2022-09-04T07:43:23;3.93;;;2.00;;
18917;SDS011;9591;52.742;13.650;2022-09-04T07:46:30;10.93;;;2.33;;
18917;SDS011;9591;52.742;13.650;2022-09-04T07:49:29;4.23;;;2.20;;
18917;SDS011;9591;52.742;13.650;2022-09-04T07:52:35;3.27;;;2.17;;
18917;SDS011;9591;52.742;13.650;2022-09-04T07:55:35;2.33;;;2.03;;
18917;SDS011;9591;52.742;13.650;2022-09-04T07:58:29;7.67;;;2.67;;
18917;SDS011;9591;52.742;13.650;2022-09-04T08:01:34;5.37;;;2.40;;
18917;SDS011;9591;52.742;13.650;2022-09-04T08:04:37;3.43;;;2.23;;
18917;SDS011;9591;52.742;13.650;2022-09-04T08:11:09;12.10;;;2.60;;
18917;SDS011;9591;52.742;13.650;2022-09-04T08:17:31;4.10;;;2.47;;
18917;SDS011;9591;52.742;13.650;2022-09-04T08:20:33;4.90;;;2.70;;
18917;SDS011;9591;52.742;13.650;2022-09-04T08:23:38;2.33;;;2.00;;
18917;SDS011;9591;52.742;13.650;2022-09-04T08:26:51;4.13;;;2.40;;
18917;SDS011;9591;52.742;13.650;2022-09-04T08:29:52;6.77;;;2.80;;
18917;SDS011;9591;52.742;13.650;2022-09-04T08:32:57;3.27;;;2.63;;
18917;SDS011;9591;52.742;13.650;2022-09-04T08:35:56;3.23;;;2.20;;
18917;SDS011;9591;52.742;13.650;2022-09-04T08:38:48;3.60;;;2.40;;
18917;SDS011;9591;52.742;13.650;2022-09-04T08:42:06;3.53;;;2.73;;
18917;SDS011;9591;52.742;13.650;2022-09-04T08:45:25;4.20;;;2.70;;
18917;SDS011;9591;52.742;13.650;2022-09-04T08:48:39;5.30;;;2.60;;
18917;SDS011;9591;52.742;13.650;2022-09-04T08:52:09;4.63;;;2.30;;
18917;SDS011;9591;52.742;13.650;2022-09-04T08:55:18;4.53;;;2.43;;
18917;SDS011;9591;52.742;13.650;2022-09-04T09:05:29;3.90;;;2.60;;
18917;SDS011;9591;52.742;13.650;2022-09-04T09:15:48;6.87;;;2.93;;
18917;SDS011;9591;52.742;13.650;2022-09-04T09:18:57;7.47;;;2.77;;
18917;SDS011;9591;52.742;13.650;2022-09-04T09:22:09;3.33;;;2.63;;
18917;SDS011;9591;52.742;13.650;2022-09-04T09:25:10;3.13;;;2.40;;
18917;SDS011;9591;52.742;13.650;2022-09-04T09:28:19;4.57;;;2.60;;
18917;SDS011;9591;52.742;13.650;2022-09-04T09:35:31;4.73;;;2.50;;
18917;SDS011;9591;52.742;13.650;2022-09-04T09:39:00;4.03;;;2.47;;
18917;SDS011;9591;52.742;13.650;2022-09-04T09:45:39;2.77;;;2.50;;
18917;SDS011;9591;52.742;13.650;2022-09-04T09:52:20;3.37;;;2.80;;
18917;SDS011;9591;52.742;13.650;2022-09-04T09:59:01;5.03;;;2.80;;
18917;SDS011;9591;52.742;13.650;2022-09-04T10:13:02;7.87;;;2.60;;
18917;SDS011;9591;52.742;13.650;2022-09-04T10:16:09;5.97;;;2.43;;
18917;SDS011;9591;52.742;13.650;2022-09-04T10:22:34;3.90;;;2.60;;
18917;SDS011;9591;52.742;13.650;2022-09-04T10:25:41;4.70;;;2.60;;
18917;SDS011;9591;52.742;13.650;2022-09-04T10:28:59;2.93;;;2.10;;
18917;SDS011;9591;52.742;13.650;2022-09-04T10:32:19;3.40;;;2.10;;
18917;SDS011;9591;52.742;13.650;2022-09-04T10:35:22;2.33;;;1.87;;
18917;SDS011;9591;52.742;13.650;2022-09-04T10:41:48;2.83;;;2.53;;
18917;SDS011;9591;52.742;13.650;2022-09-04T10:44:49;3.93;;;2.30;;
18917;SDS011;9591;52.742;13.650;2022-09-04T10:51:40;3.43;;;2.20;;
18917;SDS011;9591;52.742;13.650;2022-09-04T10:54:45;8.17;;;2.50;;
18917;SDS011;9591;52.742;13.650;2022-09-04T11:01:06;2.70;;;2.30;;
18917;SDS011;9591;52.742;13.650;2022-09-04T11:04:21;4.50;;;2.27;;
18917;SDS011;9591;52.742;13.650;2022-09-04T11:07:42;4.13;;;2.20;;
18917;SDS011;9591;52.742;13.650;2022-09-04T11:10:57;3.03;;;2.00;;
18917;SDS011;9591;52.742;13.650;2022-09-04T11:14:02;7.40;;;2.37;;
18917;SDS011;9591;52.742;13.650;2022-09-04T11:17:21;4.10;;;2.30;;
18917;SDS011;9591;52.742;13.650;2022-09-04T11:24:05;4.30;;;1.80;;
18917;SDS011;9591;52.742;13.650;2022-09-04T11:30:54;4.00;;;2.33;;
18917;SDS011;9591;52.742;13.650;2022-09-04T11:34:02;3.50;;;2.13;;
18917;SDS011;9591;52.742;13.650;2022-09-04T11:44:13;19.87;;;3.93;;
18917;SDS011;9591;52.742;13.650;2022-09-04T11:47:34;3.37;;;2.33;;
18917;SDS011;9591;52.742;13.650;2022-09-04T11:50:50;3.73;;;1.93;;
18917;SDS011;9591;52.742;13.650;2022-09-04T11:53:59;4.00;;;2.43;;
18917;SDS011;9591;52.742;13.650;2022-09-04T11:57:11;14.47;;;2.00;;
18917;SDS011;9591;52.742;13.650;2022-09-04T12:00:08;3.30;;;2.10;;
18917;SDS011;9591;52.742;13.650;2022-09-04T12:03:06;3.80;;;2.17;;
18917;SDS011;9591;52.742;13.650;2022-09-04T12:06:22;3.83;;;1.70;;
18917;SDS011;9591;52.742;13.650;2022-09-04T12:09:26;2.37;;;2.03;;
18917;SDS011;9591;52.742;13.650;2022-09-04T12:26:11;2.60;;;2.20;;
18917;SDS011;9591;52.742;13.650;2022-09-04T12:29:24;2.97;;;1.90;;
18917;SDS011;9591;52.742;13.650;2022-09-04T12:32:30;3.30;;;2.23;;
18917;SDS011;9591;52.742;13.650;2022-09-04T12:35:53;3.47;;;2.27;;
18917;SDS011;9591;52.742;13.650;2022-09-04T12:42:34;3.60;;;2.13;;
18917;SDS011;9591;52.742;13.650;2022-09-04T12:45:28;2.77;;;1.90;;
18917;SDS011;9591;52.742;13.650;2022-09-04T12:48:28;3.47;;;2.00;;
18917;SDS011;9591;52.742;13.650;2022-09-04T12:51:21;3.60;;;2.27;;
18917;SDS011;9591;52.742;13.650;2022-09-04T12:54:18;2.20;;;2.00;;
18917;SDS011;9591;52.742;13.650;2022-09-04T12:57:16;2.63;;;1.93;;
18917;SDS011;9591;52.742;13.650;2022-09-04T13:00:15;4.73;;;2.03;;
18917;SDS011;9591;52.742;13.650;2022-09-04T13:03:04;2.20;;;2.00;;
18917;SDS011;9591;52.742;13.650;2022-09-04T13:06:07;4.27;;;2.17;;
18917;SDS011;9591;52.742;13.650;2022-09-04T13:09:03;2.70;;;2.07;;
18917;SDS011;9591;52.742;13.650;2022-09-04T13:12:01;8.97;;;2.10;;
18917;SDS011;9591;52.742;13.650;2022-09-04T13:15:09;2.40;;;1.70;;
18917;SDS011;9591;52.742;13.650;2022-09-04T13:18:07;6.77;;;2.13;;
18917;SDS011;9591;52.742;13.650;2022-09-04T13:21:13;3.23;;;1.90;;
18917;SDS011;9591;52.742;13.650;2022-09-04T13:24:13;3.37;;;2.23;;
18917;SDS011;9591;52.742;13.650;2022-09-04T13:27:14;4.27;;;2.33;;
18917;SDS011;9591;52.742;13.650;2022-09-04T13:30:11;3.63;;;2.33;;
18917;SDS011;9591;52.742;13.650;2022-09-04T13:33:04;2.53;;;2.10;;
18917;SDS011;9591;52.742;13.650;2022-09-04T13:36:06;2.90;;;2.00;;
18917;SDS011;9591;52.742;13.650;2022-09-04T13:42:26;5.97;;;2.07;;
18917;SDS011;9591;52.742;13.650;2022-09-04T13:45:38;4.33;;;2.03;;
18917;SDS011;9591;52.742;13.650;2022-09-04T13:48:31;4.57;;;2.20;;
18917;SDS011;9591;52.742;13.650;2022-09-04T13:51:23;3.67;;;2.60;;
18917;SDS011;9591;52.742;13.650;2022-09-04T13:54:15;8.43;;;2.20;;
18917;SDS011;9591;52.742;13.650;2022-09-04T13:57:08;2.60;;;2.00;;
18917;SDS011;9591;52.742;13.650;2022-09-04T14:00:01;4.80;;;2.03;;
18917;SDS011;9591;52.742;13.650;2022-09-04T14:02:53;4.97;;;1.93;;
18917;SDS011;9591;52.742;13.650;2022-09-04T14:05:44;4.13;;;2.10;;
18917;SDS011;9591;52.742;13.650;2022-09-04T14:08:31;6.50;;;2.40;;
18917;SDS011;9591;52.742;13.650;2022-09-04T14:14:49;2.60;;;2.10;;
18917;SDS011;9591;52.742;13.650;2022-09-04T14:18:09;10.27;;;2.77;;
18917;SDS011;9591;52.742;13.650;2022-09-04T14:21:09;3.00;;;2.13;;
18917;SDS011;9591;52.742;13.650;2022-09-04T14:24:02;3.57;;;2.10;;
18917;SDS011;9591;52.742;13.650;2022-09-04T14:26:58;4.33;;;2.97;;
18917;SDS011;9591;52.742;13.650;2022-09-04T14:29:59;6.53;;;5.83;;
18917;SDS011;9591;52.742;13.650;2022-09-04T14:32:54;7.33;;;3.37;;
18917;SDS011;9591;52.742;13.650;2022-09-04T14:36:10;4.23;;;2.97;;
18917;SDS011;9591;52.742;13.650;2022-09-04T14:39:09;2.93;;;2.40;;
18917;SDS011;9591;52.742;13.650;2022-09-04T14:42:07;3.83;;;2.13;;
18917;SDS011;9591;52.742;13.650;2022-09-04T14:45:19;3.80;;;2.40;;
18917;SDS011;9591;52.742;13.650;2022-09-04T14:48:16;4.90;;;2.20;;
18917;SDS011;9591;52.742;13.650;2022-09-04T14:51:10;4.37;;;2.20;;
18917;SDS011;9591;52.742;13.650;2022-09-04T14:54:01;4.93;;;2.50;;
18917;SDS011;9591;52.742;13.650;2022-09-04T14:56:49;2.53;;;1.97;;
18917;SDS011;9591;52.742;13.650;2022-09-04T14:59:41;2.67;;;2.23;;
18917;SDS011;9591;52.742;13.650;2022-09-04T15:02:38;9.83;;;2.30;;
18917;SDS011;9591;52.742;13.650;2022-09-04T15:05:28;2.57;;;2.07;;
18917;SDS011;9591;52.742;13.650;2022-09-04T15:08:25;3.77;;;2.00;;
18917;SDS011;9591;52.742;13.650;2022-09-04T15:11:26;2.93;;;2.30;;
18917;SDS011;9591;52.742;13.650;2022-09-04T15:14:17;114.30;;;7.40;;
18917;SDS011;9591;52.742;13.650;2022-09-04T15:17:12;3.23;;;2.00;;
18917;SDS011;9591;52.742;13.650;2022-09-04T15:20:12;5.77;;;2.00;;
18917;SDS011;9591;52.742;13.650;2022-09-04T15:23:09;2.90;;;2.20;;
18917;SDS011;9591;52.742;13.650;2022-09-04T15:26:03;6.03;;;2.10;;
18917;SDS011;9591;52.742;13.650;2022-09-04T15:28:55;2.97;;;2.00;;
18917;SDS011;9591;52.742;13.650;2022-09-04T15:31:47;7.27;;;2.20;;
18917;SDS011;9591;52.742;13.650;2022-09-04T15:34:44;5.17;;;2.23;;
18917;SDS011;9591;52.742;13.650;2022-09-04T15:37:32;5.97;;;2.13;;
18917;SDS011;9591;52.742;13.650;2022-09-04T15:40:21;5.00;;;2.70;;
18917;SDS011;9591;52.742;13.650;2022-09-04T15:43:16;5.10;;;2.50;;
18917;SDS011;9591;52.742;13.650;2022-09-04T15:46:09;4.00;;;2.50;;
18917;SDS011;9591;52.742;13.650;2022-09-04T15:49:19;4.67;;;2.60;;
18917;SDS011;9591;52.742;13.650;2022-09-04T15:52:22;4.87;;;2.50;;
18917;SDS011;9591;52.742;13.650;2022-09-04T15:55:24;5.53;;;2.60;;
18917;SDS011;9591;52.742;13.650;2022-09-04T15:58:17;14.40;;;2.57;;
18917;SDS011;9591;52.742;13.650;2022-09-04T16:01:14;5.00;;;2.20;;
18917;SDS011;9591;52.742;13.650;2022-09-04T16:04:08;4.70;;;2.30;;
18917;SDS011;9591;52.742;13.650;2022-09-04T16:07:15;3.53;;;2.17;;
18917;SDS011;9591;52.742;13.650;2022-09-04T16:10:18;9.93;;;2.67;;
18917;SDS011;9591;52.742;13.650;2022-09-04T16:13:26;5.23;;;2.67;;
18917;SDS011;9591;52.742;13.650;2022-09-04T16:16:20;6.20;;;2.00;;
18917;SDS011;9591;52.742;13.650;2022-09-04T16:19:14;4.47;;;2.30;;
18917;SDS011;9591;52.742;13.650;2022-09-04T16:22:17;6.57;;;2.60;;
18917;SDS011;9591;52.742;13.650;2022-09-04T16:25:19;2.87;;;2.07;;
18917;SDS011;9591;52.742;13.650;2022-09-04T16:28:13;4.93;;;2.57;;
18917;SDS011;9591;52.742;13.650;2022-09-04T16:31:20;3.97;;;2.50;;
18917;SDS011;9591;52.742;13.650;2022-09-04T16:34:14;5.70;;;2.60;;
18917;SDS011;9591;52.742;13.650;2022-09-04T16:37:07;10.50;;;2.47;;
18917;SDS011;9591;52.742;13.650;2022-09-04T16:40:02;2.90;;;2.10;;
18917;SDS011;9591;52.742;13.650;2022-09-04T16:42:58;8.93;;;2.47;;
18917;SDS011;9591;52.742;13.650;2022-09-04T16:46:01;5.03;;;2.93;;
18917;SDS011;9591;52.742;13.650;2022-09-04T16:48:53;4.70;;;2.27;;
18917;SDS011;9591;52.742;13.650;2022-09-04T16:51:43;6.23;;;2.00;;
18917;SDS011;9591;52.742;13.650;2022-09-04T16:54:34;3.27;;;2.60;;
18917;SDS011;9591;52.742;13.650;2022-09-04T16:57:31;5.30;;;2.73;;
18917;SDS011;9591;52.742;13.650;2022-09-04T17:00:25;4.90;;;2.47;;
18917;SDS011;9591;52.742;13.650;2022-09-04T17:03:18;4.10;;;2.37;;
18917;SDS011;9591;52.742;13.650;2022-09-04T17:06:13;3.83;;;2.53;;
18917;SDS011;9591;52.742;13.650;2022-09-04T17:09:07;4.27;;;2.40;;
18917;SDS011;9591;52.742;13.650;2022-09-04T17:12:12;2.47;;;2.27;;
18917;SDS011;9591;52.742;13.650;2022-09-04T17:15:10;2.40;;;2.20;;
18917;SDS011;9591;52.742;13.650;2022-09-04T17:18:05;6.87;;;2.80;;
18917;SDS011;9591;52.742;13.650;2022-09-04T17:20:56;2.87;;;2.27;;
18917;SDS011;9591;52.742;13.650;2022-09-04T17:24:10;6.80;;;2.80;;
18917;SDS011;9591;52.742;13.650;2022-09-04T17:27:24;4.43;;;3.00;;
18917;SDS011;9591;52.742;13.650;2022-09-04T17:30:44;5.60;;;2.80;;
18917;SDS011;9591;52.742;13.650;2022-09-04T17:33:37;4.00;;;2.40;;
18917;SDS011;9591;52.742;13.650;2022-09-04T17:36:49;4.83;;;2.30;;
18917;SDS011;9591;52.742;13.650;2022-09-04T17:40:00;3.80;;;2.60;;
18917;SDS011;9591;52.742;13.650;2022-09-04T17:43:15;3.70;;;2.70;;
18917;SDS011;9591;52.742;13.650;2022-09-04T17:46:14;14.23;;;3.60;;
18917;SDS011;9591;52.742;13.650;2022-09-04T17:49:12;6.10;;;2.70;;
18917;SDS011;9591;52.742;13.650;2022-09-04T17:52:05;3.27;;;2.37;;
18917;SDS011;9591;52.742;13.650;2022-09-04T17:54:55;5.60;;;2.70;;
18917;SDS011;9591;52.742;13.650;2022-09-04T17:57:49;6.00;;;2.90;;
18917;SDS011;9591;52.742;13.650;2022-09-04T18:00:49;5.37;;;2.33;;
18917;SDS011;9591;52.742;13.650;2022-09-04T18:04:09;5.47;;;2.60;;
18917;SDS011;9591;52.742;13.650;2022-09-04T18:07:09;2.53;;;2.20;;
18917;SDS011;9591;52.742;13.650;2022-09-04T18:10:22;5.20;;;2.70;;
18917;SDS011;9591;52.742;13.650;2022-09-04T18:13:16;5.33;;;2.97;;
18917;SDS011;9591;52.742;13.650;2022-09-04T18:19:55;3.80;;;2.50;;
18917;SDS011;9591;52.742;13.650;2022-09-04T18:23:03;4.23;;;2.80;;
18917;SDS011;9591;52.742;13.650;2022-09-04T18:26:01;3.87;;;2.67;;
18917;SDS011;9591;52.742;13.650;2022-09-04T18:28:54;3.90;;;2.40;;
18917;SDS011;9591;52.742;13.650;2022-09-04T18:32:07;3.93;;;3.07;;
18917;SDS011;9591;52.742;13.650;2022-09-04T18:35:22;5.93;;;2.53;;
18917;SDS011;9591;52.742;13.650;2022-09-04T18:38:40;3.83;;;2.77;;
18917;SDS011;9591;52.742;13.650;2022-09-04T18:41:56;4.47;;;2.83;;
18917;SDS011;9591;52.742;13.650;2022-09-04T18:45:24;3.33;;;2.77;;
18917;SDS011;9591;52.742;13.650;2022-09-04T18:48:35;3.37;;;2.90;;
18917;SDS011;9591;52.742;13.650;2022-09-04T18:51:45;3.13;;;2.60;;
18917;SDS011;9591;52.742;13.650;2022-09-04T18:54:38;5.77;;;2.90;;
18917;SDS011;9591;52.742;13.650;2022-09-04T18:57:31;5.77;;;2.43;;
18917;SDS011;9591;52.742;13.650;2022-09-04T19:00:24;5.37;;;2.87;;
18917;SDS011;9591;52.742;13.650;2022-09-04T19:03:17;4.57;;;2.90;;
18917;SDS011;9591;52.742;13.650;2022-09-04T19:06:11;7.97;;;2.63;;
18917;SDS011;9591;52.742;13.650;2022-09-04T19:09:00;5.97;;;3.07;;
18917;SDS011;9591;52.742;13.650;2022-09-04T19:11:56;4.30;;;3.30;;
18917;SDS011;9591;52.742;13.650;2022-09-04T19:14:47;8.20;;;3.27;;
18917;SDS011;9591;52.742;13.650;2022-09-04T19:17:38;7.07;;;2.93;;
18917;SDS011;9591;52.742;13.650;2022-09-04T19:20:27;3.23;;;2.60;;
18917;SDS011;9591;52.742;13.650;2022-09-04T19:23:23;3.87;;;3.03;;
18917;SDS011;9591;52.742;13.650;2022-09-04T19:26:17;3.97;;;3.20;;
18917;SDS011;9591;52.742;13.650;2022-09-04T19:29:14;8.20;;;3.40;;
18917;SDS011;9591;52.742;13.650;2022-09-04T19:32:07;4.03;;;2.87;;
18917;SDS011;9591;52.742;13.650;2022-09-04T19:35:02;5.47;;;2.73;;
18917;SDS011;9591;52.742;13.650;2022-09-04T19:37:58;3.53;;;2.83;;
18917;SDS011;9591;52.742;13.650;2022-09-04T19:41:10;5.53;;;2.97;;
18917;SDS011;9591;52.742;13.650;2022-09-04T19:44:24;8.73;;;3.27;;
18917;SDS011;9591;52.742;13.650;2022-09-04T19:47:38;11.80;;;3.40;;
18917;SDS011;9591;52.742;13.650;2022-09-04T19:50:39;5.63;;;3.00;;
18917;SDS011;9591;52.742;13.650;2022-09-04T19:53:51;4.07;;;3.10;;
18917;SDS011;9591;52.742;13.650;2022-09-04T19:56:44;6.80;;;3.10;;
18917;SDS011;9591;52.742;13.650;2022-09-04T19:59:55;10.80;;;3.00;;
18917;SDS011;9591;52.742;13.650;2022-09-04T20:03:14;9.50;;;2.97;;
18917;SDS011;9591;52.742;13.650;2022-09-04T20:06:18;7.40;;;3.27;;
18917;SDS011;9591;52.742;13.650;2022-09-04T20:09:09;7.30;;;3.00;;
18917;SDS011;9591;52.742;13.650;2022-09-04T20:12:02;7.20;;;3.70;;
18917;SDS011;9591;52.742;13.650;2022-09-04T20:15:06;6.23;;;3.70;;
18917;SDS011;9591;52.742;13.650;2022-09-04T20:18:16;4.93;;;3.53;;
18917;SDS011;9591;52.742;13.650;2022-09-04T20:21:08;4.97;;;3.13;;
18917;SDS011;9591;52.742;13.650;2022-09-04T20:24:03;4.30;;;3.30;;
18917;SDS011;9591;52.742;13.650;2022-09-04T20:26:57;10.30;;;5.47;;